Terminal Aerodrome Forecast
Issued by NWS

Home | Current Version | Previous Version | Text Only | Print | Product List | Glossary On
Versions: 1 2 3 4 5 6 7 8 9 10 11 12 13 14 15 16 17 18 19 20 21 22 23 24
000
FTUS46 KEKA 212320
TAFCEC
TAF
KCEC 212320Z 2200/2224 16020G28KT 4SM -RA BR BKN025 OVC030
     FM220400 17025G30KT 5SM RA BR OVC020
     FM221000 21015G25KT P6SM -SHRA BKN020
     FM221800 26008KT P6SM OVC050=

USA.gov is the U.S. government's official web portal to all federal, state and local government web resources and services.